Time;durP1;ratioP1;P1;durP2;ratioP2;P2;SDS_P1;SDS_P2;PMS_P1;PMS_P2;Temp;Humidity;BMP_temperature;BMP_pressure;BME280_temperature;BME280_humidity;BME280_pressure;Samples;Min_cycle;Max_cycle;Signal;HPM_P1;HPM_P2
2022/07/20 00:00:39;;;;;;;4.10;2.35;;;22.80;42.20;;;;;;4938870;28;20038;-70
2022/07/20 00:03:09;;;;;;;3.85;2.15;;;22.70;42.40;;;;;;4945353;28;20061;-70
2022/07/20 00:05:35;;;;;;;8.20;3.15;;;22.60;42.60;;;;;;4970950;28;20156;-72
2022/07/20 00:08:01;;;;;;;6.70;2.78;;;22.60;42.60;;;;;;4989611;28;20491;-69
2022/07/20 00:13:11;;;;;;;3.28;2.35;;;22.50;42.90;;;;;;4988549;28;20034;-71
2022/07/20 00:15:36;;;;;;;4.50;2.38;;;22.40;43.10;;;;;;4979838;28;20027;-69
2022/07/20 00:18:02;;;;;;;4.43;2.53;;;22.40;43.20;;;;;;4972498;28;20437;-69
2022/07/20 00:20:28;;;;;;;6.53;2.38;;;22.30;43.20;;;;;;4994348;28;20371;-70
2022/07/20 00:22:53;;;;;;;2.97;2.20;;;22.30;43.30;;;;;;4983125;28;20039;-71
2022/07/20 00:25:19;;;;;;;3.60;2.50;;;22.30;43.40;;;;;;4961210;28;20660;-70
2022/07/20 00:27:44;;;;;;;5.25;2.50;;;22.20;43.60;;;;;;4951190;28;20080;-70
2022/07/20 00:30:11;;;;;;;5.22;2.15;;;22.20;43.70;;;;;;4970730;28;20478;-71
2022/07/20 00:32:37;;;;;;;8.90;2.75;;;22.10;43.80;;;;;;4974591;28;20022;-70
2022/07/20 00:35:08;;;;;;;6.05;2.22;;;22.10;43.90;;;;;;4960866;28;20113;-69
2022/07/20 00:37:34;;;;;;;4.20;2.35;;;22.00;44.10;;;;;;4967801;28;20034;-71
2022/07/20 00:39:59;;;;;;;8.00;2.42;;;22.00;44.10;;;;;;4994905;28;20034;-70
2022/07/20 00:42:25;;;;;;;7.28;2.20;;;22.00;44.20;;;;;;4973844;28;20120;-71
2022/07/20 00:44:50;;;;;;;3.08;1.95;;;21.90;44.40;;;;;;4947399;28;20115;-70
2022/07/20 00:47:16;;;;;;;6.78;2.42;;;21.90;44.40;;;;;;4979374;28;20057;-70
2022/07/20 00:49:41;;;;;;;5.50;2.47;;;21.80;44.60;;;;;;4967160;28;20035;-70
2022/07/20 00:52:07;;;;;;;12.32;3.50;;;21.80;44.70;;;;;;4956129;28;20035;-71
2022/07/20 00:54:32;;;;;;;3.75;2.28;;;21.80;44.80;;;;;;4956237;28;20022;-71
2022/07/20 00:56:58;;;;;;;9.90;2.67;;;21.70;45.10;;;;;;4977294;28;20107;-71
2022/07/20 00:59:24;;;;;;;4.57;2.30;;;21.60;45.10;;;;;;4972181;28;20125;-71
2022/07/20 01:01:49;;;;;;;5.78;2.15;;;21.60;45.20;;;;;;4972453;28;20022;-70
2022/07/20 01:04:15;;;;;;;5.45;2.13;;;21.60;45.40;;;;;;4978409;28;20041;-72
2022/07/20 01:06:40;;;;;;;6.53;2.55;;;21.50;45.50;;;;;;4959461;28;20097;-73
2022/07/20 01:09:06;;;;;;;6.88;3.10;;;21.50;45.60;;;;;;4987577;28;20025;-71
2022/07/20 01:11:33;;;;;;;7.28;2.53;;;21.40;45.70;;;;;;4950258;28;21243;-71
2022/07/20 01:14:02;;;;;;;7.72;2.38;;;21.40;45.90;;;;;;4974003;28;20046;-71
2022/07/20 01:16:28;;;;;;;7.93;2.58;;;21.40;46.10;;;;;;4982985;28;20045;-71
2022/07/20 01:18:53;;;;;;;2.92;2.28;;;21.30;46.70;;;;;;4989005;28;20030;-71
2022/07/20 01:21:19;;;;;;;6.18;2.42;;;21.20;46.00;;;;;;4967764;28;20534;-70
2022/07/20 01:23:45;;;;;;;5.95;3.00;;;21.20;46.20;;;;;;4980608;28;20030;-71
2022/07/20 01:26:10;;;;;;;4.00;2.60;;;21.20;46.40;;;;;;4961938;28;20047;-71
2022/07/20 01:28:36;;;;;;;5.10;2.80;;;21.20;46.50;;;;;;4991857;28;20037;-71
2022/07/20 01:31:01;;;;;;;3.90;2.80;;;21.10;46.70;;;;;;4983076;28;20041;-71
2022/07/20 01:33:27;;;;;;;7.25;2.22;;;21.00;47.40;;;;;;4951789;28;20047;-71
2022/07/20 01:35:52;;;;;;;6.20;2.63;;;21.00;46.80;;;;;;4967976;28;20019;-71
2022/07/20 01:38:18;;;;;;;6.85;2.58;;;21.00;46.90;;;;;;4972168;28;20747;-71
2022/07/20 01:40:43;;;;;;;5.32;2.58;;;20.90;47.00;;;;;;4942201;28;20045;-71
2022/07/20 01:43:09;;;;;;;3.90;2.50;;;20.90;47.00;;;;;;4969642;28;20534;-70
2022/07/20 01:45:34;;;;;;;6.20;2.50;;;20.90;47.20;;;;;;4959595;28;20030;-71
2022/07/20 01:48:00;;;;;;;5.53;2.50;;;20.80;47.20;;;;;;4964738;28;20081;-73
2022/07/20 01:50:26;;;;;;;6.22;2.47;;;20.80;47.40;;;;;;4964356;28;20054;-71
2022/07/20 01:52:51;;;;;;;7.32;3.08;;;20.80;47.40;;;;;;4974492;28;20022;-71
2022/07/20 01:55:17;;;;;;;5.25;2.40;;;20.70;47.50;;;;;;4990657;28;20048;-71
2022/07/20 01:57:42;;;;;;;3.35;2.53;;;20.70;47.50;;;;;;4994127;28;20100;-72
2022/07/20 02:00:09;;;;;;;9.02;3.38;;;20.60;47.60;;;;;;4964976;28;20049;-70
2022/07/20 02:02:34;;;;;;;4.82;2.20;;;20.60;47.80;;;;;;4964369;28;20026;-70
2022/07/20 02:05:00;;;;;;;4.88;2.60;;;20.60;47.90;;;;;;4976311;28;20022;-71
2022/07/20 02:07:25;;;;;;;2.75;2.25;;;20.60;48.10;;;;;;4961343;28;20269;-70
2022/07/20 02:09:51;;;;;;;6.32;2.58;;;20.50;48.10;;;;;;4946625;28;20033;-71
2022/07/20 02:12:19;;;;;;;4.63;2.95;;;20.50;48.30;;;;;;4939440;28;20034;-70
2022/07/20 02:14:44;;;;;;;4.25;2.67;;;20.40;48.30;;;;;;4959987;28;20114;-71
2022/07/20 02:17:10;;;;;;;6.22;2.50;;;20.40;48.40;;;;;;4958350;28;20153;-70
2022/07/20 02:19:35;;;;;;;7.90;2.72;;;20.40;48.50;;;;;;4977369;28;20054;-72
2022/07/20 02:22:01;;;;;;;8.63;3.30;;;20.30;48.60;;;;;;4939233;28;20121;-71
2022/07/20 02:24:26;;;;;;;8.82;2.60;;;20.30;48.60;;;;;;4928136;28;20047;-71
2022/07/20 02:26:52;;;;;;;6.90;3.10;;;20.30;48.80;;;;;;4971709;28;20058;-72
2022/07/20 02:29:17;;;;;;;4.88;2.55;;;20.20;48.90;;;;;;4958072;28;20026;-70
2022/07/20 02:31:43;;;;;;;7.90;2.72;;;20.10;48.90;;;;;;4921728;28;20034;-71
2022/07/20 02:34:08;;;;;;;6.50;2.25;;;20.10;49.10;;;;;;4945626;28;20042;-73
2022/07/20 02:36:34;;;;;;;8.20;2.75;;;20.10;49.10;;;;;;4937905;28;20038;-72
2022/07/20 02:39:00;;;;;;;9.30;2.85;;;20.10;49.30;;;;;;4943355;28;20040;-71
2022/07/20 02:41:25;;;;;;;6.75;2.90;;;20.00;49.30;;;;;;4961582;28;20027;-73
2022/07/20 02:43:51;;;;;;;5.43;2.45;;;20.00;49.50;;;;;;4957092;28;20050;-72
2022/07/20 02:46:16;;;;;;;4.78;2.35;;;19.90;49.50;;;;;;4951604;28;20041;-71
2022/07/20 02:48:42;;;;;;;6.82;2.85;;;19.90;49.60;;;;;;4950430;28;20031;-71
2022/07/20 02:51:07;;;;;;;4.10;2.38;;;19.90;49.70;;;;;;4955504;28;20049;-72
2022/07/20 02:53:33;;;;;;;4.13;2.78;;;19.90;49.80;;;;;;4941401;28;20042;-72
2022/07/20 02:55:58;;;;;;;3.47;2.40;;;19.80;50.00;;;;;;4952160;28;20039;-72
2022/07/20 02:58:24;;;;;;;4.00;2.35;;;19.80;50.00;;;;;;4954263;28;20047;-71
2022/07/20 03:00:49;;;;;;;5.47;2.53;;;19.70;50.00;;;;;;4989661;28;20128;-72
2022/07/20 03:03:15;;;;;;;4.70;2.70;;;19.70;50.20;;;;;;4944800;28;20062;-71
2022/07/20 03:05:41;;;;;;;4.45;2.80;;;19.70;50.40;;;;;;4970408;28;20059;-73
2022/07/20 03:08:07;;;;;;;6.65;2.65;;;19.70;50.40;;;;;;4965732;28;20631;-72
2022/07/20 03:10:33;;;;;;;7.75;2.40;;;19.60;50.40;;;;;;4959191;28;20088;-71
2022/07/20 03:12:58;;;;;;;7.22;2.90;;;19.60;50.50;;;;;;4933810;28;20051;-72
2022/07/20 03:15:24;;;;;;;5.40;2.67;;;19.60;50.50;;;;;;4946182;28;20192;-71
2022/07/20 03:17:51;;;;;;;5.10;3.03;;;19.50;50.60;;;;;;4969320;28;20050;-72
2022/07/20 03:20:21;;;;;;;4.45;2.75;;;19.50;50.80;;;;;;4965437;28;20042;-73
2022/07/20 03:22:46;;;;;;;4.15;2.70;;;19.40;50.90;;;;;;4981369;28;20041;-72
2022/07/20 03:25:12;;;;;;;9.27;2.92;;;19.40;50.90;;;;;;4992748;28;20030;-75
2022/07/20 03:27:37;;;;;;;8.38;2.35;;;19.40;51.00;;;;;;4989942;28;20136;-72
2022/07/20 03:30:04;;;;;;;3.65;2.85;;;19.40;51.20;;;;;;4968642;28;20064;-72
2022/07/20 03:32:30;;;;;;;8.02;3.30;;;19.30;51.20;;;;;;4977810;28;20529;-72
2022/07/20 03:34:55;;;;;;;5.25;2.65;;;19.30;51.40;;;;;;4963794;28;20034;-73
2022/07/20 03:37:21;;;;;;;6.30;2.70;;;19.20;51.30;;;;;;4975006;28;20042;-72
2022/07/20 03:39:46;;;;;;;4.07;2.80;;;19.20;51.40;;;;;;4958749;28;20684;-72
2022/07/20 03:42:12;;;;;;;9.73;2.80;;;19.20;51.60;;;;;;4989068;28;20064;-73
2022/07/20 03:44:37;;;;;;;5.88;3.47;;;19.10;51.70;;;;;;4970460;28;20059;-71
2022/07/20 03:47:03;;;;;;;5.30;2.85;;;19.10;51.70;;;;;;4964510;28;20061;-72
2022/07/20 03:49:28;;;;;;;5.03;2.88;;;19.10;51.80;;;;;;4976074;28;20124;-72
2022/07/20 03:51:54;;;;;;;5.15;2.75;;;19.10;51.90;;;;;;4974027;28;20034;-73
2022/07/20 03:54:19;;;;;;;4.53;2.67;;;19.10;52.00;;;;;;4966530;28;20113;-73
2022/07/20 03:56:45;;;;;;;7.75;3.10;;;19.00;52.00;;;;;;4961015;28;20116;-70
2022/07/20 03:59:11;;;;;;;5.25;2.53;;;19.00;52.10;;;;;;4966084;28;20067;-70
2022/07/20 04:01:36;;;;;;;6.60;3.05;;;18.90;52.10;;;;;;4945706;28;20070;-70
2022/07/20 04:04:02;;;;;;;7.72;3.00;;;18.90;52.30;;;;;;4966621;28;20122;-70
2022/07/20 04:06:28;;;;;;;6.68;2.90;;;18.90;52.30;;;;;;4988695;28;20038;-71
2022/07/20 04:08:53;;;;;;;8.98;3.60;;;18.90;52.30;;;;;;4974768;28;20131;-71
2022/07/20 04:11:19;;;;;;;4.10;2.75;;;18.80;52.30;;;;;;4955376;28;20470;-70
2022/07/20 04:13:45;;;;;;;6.18;2.72;;;18.80;52.50;;;;;;4960186;28;20039;-71
2022/07/20 04:16:10;;;;;;;7.30;2.55;;;18.80;52.60;;;;;;4957072;28;20040;-71
2022/07/20 04:18:36;;;;;;;11.05;2.67;;;18.80;52.80;;;;;;4974340;28;20035;-70
2022/07/20 04:21:01;;;;;;;5.80;2.70;;;18.70;52.80;;;;;;4969445;28;20046;-70
2022/07/20 04:23:27;;;;;;;4.68;2.80;;;18.70;52.80;;;;;;4970824;28;20683;-71
2022/07/20 04:25:52;;;;;;;4.53;2.88;;;18.70;52.90;;;;;;4964794;28;20067;-71
2022/07/20 04:28:18;;;;;;;5.82;3.03;;;18.70;53.00;;;;;;4974205;28;20073;-72
2022/07/20 04:30:44;;;;;;;6.10;2.75;;;18.70;53.10;;;;;;4965363;28;20133;-72
2022/07/20 04:33:09;;;;;;;4.97;2.70;;;18.60;53.10;;;;;;4991935;28;20120;-74
2022/07/20 04:35:35;;;;;;;6.63;3.17;;;18.60;53.30;;;;;;4945983;28;20069;-72
2022/07/20 04:38:00;;;;;;;4.05;2.88;;;18.70;53.40;;;;;;4949200;28;20622;-72
2022/07/20 04:40:26;;;;;;;6.75;2.97;;;18.60;53.40;;;;;;4927710;28;20727;-72
2022/07/20 04:42:54;;;;;;;4.03;2.90;;;18.60;53.40;;;;;;4950980;28;20543;-72
2022/07/20 04:45:20;;;;;;;7.07;2.83;;;18.60;53.50;;;;;;4936923;28;20047;-72
2022/07/20 04:47:46;;;;;;;7.00;3.53;;;18.60;53.50;;;;;;4954173;28;20034;-72
2022/07/20 04:50:12;;;;;;;6.07;3.00;;;18.60;53.50;;;;;;4948967;28;20051;-75
2022/07/20 04:52:37;;;;;;;6.18;3.40;;;18.60;53.60;;;;;;4946826;28;20034;-75
2022/07/20 04:55:03;;;;;;;7.88;3.78;;;18.60;53.70;;;;;;4974998;28;21050;-74
2022/07/20 04:57:29;;;;;;;4.22;2.88;;;18.60;53.80;;;;;;4959947;28;20601;-74
2022/07/20 04:59:54;;;;;;;7.57;3.33;;;18.60;54.10;;;;;;4946337;28;20108;-72
2022/07/20 05:02:20;;;;;;;11.52;4.13;;;18.70;54.30;;;;;;4972598;28;20035;-71
2022/07/20 05:04:46;;;;;;;8.75;4.40;;;18.60;54.30;;;;;;4949815;28;20049;-71
2022/07/20 05:07:13;;;;;;;11.15;5.00;;;18.70;54.40;;;;;;4951673;28;20043;-71
2022/07/20 05:09:39;;;;;;;9.82;4.88;;;18.70;54.60;;;;;;4953312;28;20038;-69
2022/07/20 05:12:05;;;;;;;9.13;4.65;;;18.70;54.80;;;;;;4956759;28;20030;-72
2022/07/20 05:14:30;;;;;;;8.20;4.10;;;18.80;55.10;;;;;;4940288;28;20517;-70
2022/07/20 05:16:56;;;;;;;9.52;4.13;;;18.80;54.90;;;;;;4933223;28;20555;-70
2022/07/20 05:19:21;;;;;;;7.13;3.53;;;18.80;54.90;;;;;;4944427;28;20159;-71
2022/07/20 05:21:47;;;;;;;11.35;4.15;;;18.90;55.10;;;;;;4969290;28;20294;-71
2022/07/20 05:24:12;;;;;;;9.75;4.07;;;18.90;55.20;;;;;;4925248;28;20512;-70
2022/07/20 05:26:38;;;;;;;9.95;3.70;;;19.00;55.40;;;;;;4964469;28;20517;-70
2022/07/20 05:29:03;;;;;;;11.40;4.05;;;19.00;55.50;;;;;;4938893;28;20047;-71
2022/07/20 05:31:29;;;;;;;11.57;3.97;;;19.10;55.50;;;;;;4964846;28;20042;-72
2022/07/20 05:33:54;;;;;;;14.02;4.63;;;19.20;55.70;;;;;;4950695;28;20491;-71
2022/07/20 05:36:20;;;;;;;9.15;3.95;;;19.20;55.60;;;;;;4948381;28;20034;-70
2022/07/20 05:38:45;;;;;;;8.57;3.83;;;19.30;55.70;;;;;;4963637;28;20066;-71
2022/07/20 05:41:11;;;;;;;11.55;4.03;;;19.30;55.90;;;;;;4967330;28;20140;-71
2022/07/20 05:43:36;;;;;;;9.55;4.50;;;19.40;55.90;;;;;;4963250;28;20128;-71
2022/07/20 05:46:02;;;;;;;9.90;3.90;;;19.40;55.80;;;;;;4944909;28;20128;-70
2022/07/20 05:48:29;;;;;;;10.63;4.20;;;19.50;55.90;;;;;;4965221;28;20054;-69
2022/07/20 05:50:54;;;;;;;8.02;3.80;;;19.50;55.90;;;;;;4942660;28;20539;-71
2022/07/20 05:53:20;;;;;;;9.85;4.70;;;19.60;55.90;;;;;;4962266;28;20046;-72
2022/07/20 05:55:46;;;;;;;15.52;4.35;;;19.60;55.90;;;;;;4957014;28;20042;-71
2022/07/20 05:58:11;;;;;;;10.15;3.85;;;19.70;56.00;;;;;;4946654;28;20035;-72
2022/07/20 06:00:37;;;;;;;10.82;4.30;;;19.80;56.10;;;;;;4973258;28;20539;-71
2022/07/20 06:03:03;;;;;;;6.65;3.90;;;19.80;55.80;;;;;;4974400;28;20031;-71
2022/07/20 06:05:29;;;;;;;6.85;3.65;;;19.90;56.00;;;;;;4947339;28;20130;-70
2022/07/20 06:07:55;;;;;;;9.00;4.00;;;20.00;56.10;;;;;;4954903;28;20043;-71
2022/07/20 06:10:22;;;;;;;6.25;3.45;;;20.10;56.00;;;;;;4948974;28;20738;-71
2022/07/20 06:12:47;;;;;;;8.77;3.90;;;20.10;55.90;;;;;;4936063;28;20034;-71
2022/07/20 06:15:13;;;;;;;10.52;3.70;;;20.30;56.00;;;;;;4953085;28;20035;-70
2022/07/20 06:17:39;;;;;;;11.95;4.25;;;20.40;55.90;;;;;;4960493;28;20046;-70
2022/07/20 06:20:07;;;;;;;11.00;3.80;;;20.50;55.80;;;;;;4941107;28;20118;-71
2022/07/20 06:22:34;;;;;;;9.25;3.72;;;20.70;55.60;;;;;;4925120;28;20591;-71
2022/07/20 06:24:59;;;;;;;10.95;3.58;;;20.80;55.50;;;;;;4966674;28;20531;-71
2022/07/20 06:27:25;;;;;;;13.23;4.22;;;20.90;55.20;;;;;;4966026;28;20093;-70
2022/07/20 06:29:51;;;;;;;10.40;3.88;;;21.10;55.10;;;;;;4942096;28;20099;-70
2022/07/20 06:32:16;;;;;;;11.02;4.65;;;21.30;55.00;;;;;;4968830;28;20562;-71
2022/07/20 06:34:42;;;;;;;7.13;4.05;;;21.40;54.60;;;;;;4961816;28;20027;-70
2022/07/20 06:37:07;;;;;;;5.72;3.42;;;21.60;54.30;;;;;;4938254;28;20114;-72
2022/07/20 06:39:33;;;;;;;7.90;4.45;;;21.80;54.00;;;;;;4973456;28;20035;-72
2022/07/20 06:41:58;;;;;;;6.93;3.17;;;21.90;53.70;;;;;;4977063;28;20043;-70
2022/07/20 06:44:24;;;;;;;8.13;3.55;;;22.10;53.40;;;;;;4929877;28;20036;-72
2022/07/20 06:46:50;;;;;;;10.93;3.65;;;22.30;53.10;;;;;;4922740;28;20049;-72
2022/07/20 06:49:15;;;;;;;8.63;3.70;;;22.50;52.70;;;;;;4932075;28;20869;-71
2022/07/20 06:51:41;;;;;;;6.30;3.60;;;22.70;52.40;;;;;;4946987;28;20039;-72
2022/07/20 06:54:06;;;;;;;7.68;3.17;;;22.80;52.00;;;;;;4935578;28;20507;-71
2022/07/20 06:56:32;;;;;;;7.25;3.40;;;23.10;51.90;;;;;;4947012;28;21876;-72
2022/07/20 06:58:57;;;;;;;6.25;3.70;;;23.20;51.40;;;;;;4949494;28;20042;-71
2022/07/20 07:01:23;;;;;;;6.28;3.50;;;23.50;51.10;;;;;;4952348;28;20055;-73
2022/07/20 07:03:48;;;;;;;8.30;3.63;;;23.70;50.70;;;;;;4961175;28;20109;-71
2022/07/20 07:06:14;;;;;;;10.15;3.20;;;23.90;50.40;;;;;;4950123;28;20070;-71
2022/07/20 07:08:39;;;;;;;10.98;3.35;;;24.10;50.00;;;;;;4956405;28;20538;-71
2022/07/20 07:11:05;;;;;;;6.28;3.38;;;24.30;49.70;;;;;;4963729;28;20495;-72
2022/07/20 07:13:30;;;;;;;6.35;3.95;;;24.50;49.30;;;;;;4934887;28;20034;-71
2022/07/20 07:15:56;;;;;;;6.35;3.25;;;24.70;49.00;;;;;;4948127;28;20046;-71
2022/07/20 07:18:21;;;;;;;8.43;3.40;;;24.90;48.70;;;;;;4947885;28;20046;-70
2022/07/20 07:20:47;;;;;;;10.50;3.15;;;25.10;48.50;;;;;;4960896;28;20459;-71
2022/07/20 07:23:13;;;;;;;8.98;3.38;;;25.20;48.10;;;;;;4945691;28;20575;-71
2022/07/20 07:25:38;;;;;;;10.93;3.50;;;25.40;47.80;;;;;;4975651;28;20428;-72
2022/07/20 07:28:04;;;;;;;13.98;3.55;;;25.60;47.50;;;;;;4951981;28;20049;-71
2022/07/20 07:30:29;;;;;;;7.03;3.13;;;25.80;47.20;;;;;;4947109;28;20031;-73
2022/07/20 07:32:55;;;;;;;4.80;3.17;;;26.00;46.90;;;;;;4941664;28;20154;-71
2022/07/20 07:35:20;;;;;;;6.18;3.20;;;26.20;46.60;;;;;;4931655;28;20090;-72
2022/07/20 07:37:46;;;;;;;6.72;3.10;;;26.40;46.30;;;;;;4955367;28;20034;-71
2022/07/20 07:40:12;;;;;;;8.43;3.75;;;26.60;46.00;;;;;;4942858;28;20039;-72
2022/07/20 07:42:37;;;;;;;7.47;3.10;;;26.80;45.70;;;;;;4974213;28;20062;-72
2022/07/20 07:45:06;;;;;;;8.48;2.95;;;27.00;45.50;;;;;;4944808;28;20038;-71
2022/07/20 07:47:32;;;;;;;10.55;2.90;;;27.20;45.20;;;;;;4975524;28;20038;-72
2022/07/20 07:49:57;;;;;;;4.65;3.30;;;27.50;44.80;;;;;;4947498;28;20054;-72
2022/07/20 07:52:23;;;;;;;7.63;2.72;;;27.70;44.40;;;;;;4959758;28;20069;-71
2022/07/20 07:54:48;;;;;;;16.65;3.55;;;27.90;44.00;;;;;;4941565;28;20055;-71
2022/07/20 07:57:14;;;;;;;8.52;2.95;;;28.10;43.70;;;;;;4972899;28;20146;-71
2022/07/20 07:59:40;;;;;;;9.27;2.53;;;28.30;43.40;;;;;;4959422;28;20035;-71
2022/07/20 08:02:05;;;;;;;8.80;2.70;;;28.50;43.10;;;;;;4949948;28;20162;-71
2022/07/20 08:04:31;;;;;;;5.30;3.13;;;28.70;42.70;;;;;;4956068;28;20130;-72
2022/07/20 08:06:56;;;;;;;5.97;2.63;;;28.90;42.40;;;;;;4952532;28;20506;-72
2022/07/20 08:09:22;;;;;;;11.43;3.20;;;29.10;42.00;;;;;;4944755;28;20484;-71
2022/07/20 08:11:47;;;;;;;4.90;2.78;;;29.30;41.60;;;;;;4950223;28;20063;-71
2022/07/20 08:14:13;;;;;;;8.65;3.25;;;29.50;41.30;;;;;;4974599;28;20042;-73
2022/07/20 08:16:39;;;;;;;8.35;3.00;;;29.70;40.90;;;;;;4955796;28;20043;-71
2022/07/20 08:19:04;;;;;;;3.05;2.28;;;30.00;40.80;;;;;;4944561;28;20257;-71
2022/07/20 08:21:30;;;;;;;3.08;2.75;;;30.20;40.40;;;;;;4955285;28;20043;-72
2022/07/20 08:23:55;;;;;;;8.70;2.95;;;30.30;40.10;;;;;;4955919;28;20044;-72
2022/07/20 08:26:21;;;;;;;4.35;2.47;;;30.60;39.80;;;;;;4955356;28;20030;-71
2022/07/20 08:28:46;;;;;;;3.38;2.20;;;30.70;39.40;;;;;;4973623;28;20055;-72
2022/07/20 08:31:12;;;;;;;3.67;2.38;;;30.90;39.00;;;;;;4953669;28;20050;-72
2022/07/20 08:33:37;;;;;;;5.35;2.38;;;31.10;38.70;;;;;;4944137;28;20066;-71
2022/07/20 08:36:03;;;;;;;6.40;2.53;;;31.20;38.30;;;;;;4970355;28;20034;-73
2022/07/20 08:38:29;;;;;;;4.68;2.33;;;31.40;38.00;;;;;;4950792;28;20037;-71
2022/07/20 08:40:56;;;;;;;5.38;2.47;;;31.60;37.80;;;;;;4958022;28;20035;-72
2022/07/20 08:43:21;;;;;;;7.57;2.63;;;31.80;37.70;;;;;;4974032;28;20046;-72
2022/07/20 08:45:48;;;;;;;3.88;2.47;;;32.00;37.30;;;;;;4948162;28;20031;-72
2022/07/20 08:48:16;;;;;;;4.85;2.40;;;32.10;37.00;;;;;;4954673;28;20090;-73
2022/07/20 08:50:41;;;;;;;5.63;2.92;;;32.30;36.70;;;;;;4970513;28;20050;-73
2022/07/20 08:53:07;;;;;;;8.38;2.30;;;32.60;36.50;;;;;;4960035;28;20117;-72
2022/07/20 08:55:33;;;;;;;4.38;2.60;;;32.70;36.00;;;;;;4939811;28;20118;-72
2022/07/20 08:57:58;;;;;;;4.68;2.22;;;32.90;35.80;;;;;;4976921;28;20708;-73
2022/07/20 09:00:24;;;;;;;3.80;2.78;;;33.00;35.40;;;;;;4949230;28;20110;-72
2022/07/20 09:03:02;;;;;;;5.93;2.60;;;33.10;35.20;;;;;;4922637;28;20511;-71
2022/07/20 09:05:29;;;;;;;6.57;2.50;;;33.30;35.00;;;;;;4973563;28;20100;-72
2022/07/20 09:07:56;;;;;;;8.40;2.50;;;33.50;34.90;;;;;;4958914;28;20112;-73
2022/07/20 09:10:23;;;;;;;3.35;2.42;;;33.70;34.60;;;;;;4960323;28;20049;-73
2022/07/20 09:12:59;;;;;;;4.53;2.28;;;33.80;34.30;;;;;;4973778;28;20039;-72
2022/07/20 09:15:30;;;;;;;7.55;2.22;;;34.00;34.00;;;;;;4947180;28;20049;-74
2022/07/20 09:18:11;;;;;;;3.17;2.10;;;34.20;33.70;;;;;;4974875;28;20657;-72
2022/07/20 09:20:45;;;;;;;6.97;2.63;;;34.30;33.40;;;;;;4949609;28;20050;-73
2022/07/20 09:23:22;;;;;;;11.43;4.38;;;34.50;33.40;;;;;;4946279;28;20032;-72
2022/07/20 09:26:00;;;;;;;8.27;3.35;;;34.60;33.20;;;;;;4961381;28;21042;-72
2022/07/20 09:28:36;;;;;;;12.35;3.90;;;34.90;32.70;;;;;;4950489;28;20038;-72
2022/07/20 09:31:02;;;;;;;9.35;4.10;;;35.00;33.40;;;;;;4952818;28;20037;-72
2022/07/20 09:33:29;;;;;;;7.22;2.95;;;35.20;32.70;;;;;;4934009;28;20504;-72
2022/07/20 09:35:55;;;;;;;4.85;2.53;;;35.40;32.60;;;;;;4942198;28;20640;-72
2022/07/20 09:38:22;;;;;;;5.13;2.92;;;35.60;32.40;;;;;;4944806;28;20636;-72
2022/07/20 09:40:47;;;;;;;7.07;2.60;;;35.70;32.00;;;;;;4956298;28;20057;-73
2022/07/20 09:43:30;;;;;;;5.35;2.65;;;35.90;31.80;;;;;;4967068;28;20606;-73
2022/07/20 09:46:07;;;;;;;2.85;2.28;;;36.10;31.20;;;;;;4937949;28;20094;-72
2022/07/20 09:48:43;;;;;;;6.78;2.55;;;36.20;31.30;;;;;;4961776;28;20038;-72
2022/07/20 09:51:19;;;;;;;7.00;2.75;;;36.30;31.00;;;;;;4934349;28;20065;-72
2022/07/20 09:53:45;;;;;;;6.40;2.70;;;36.40;30.60;;;;;;4963289;28;20570;-72
2022/07/20 09:56:10;;;;;;;3.55;2.80;;;36.60;30.70;;;;;;4977526;28;20052;-74
2022/07/20 09:58:36;;;;;;;8.20;3.30;;;36.80;30.60;;;;;;4963480;28;20039;-72
2022/07/20 10:01:02;;;;;;;6.82;2.08;;;37.00;30.40;;;;;;4952818;28;20149;-72
2022/07/20 10:03:28;;;;;;;3.30;2.45;;;37.10;30.20;;;;;;4976029;28;20101;-73
2022/07/20 10:05:54;;;;;;;7.05;2.80;;;37.10;30.00;;;;;;4984978;28;20038;-72
2022/07/20 10:08:19;;;;;;;5.93;2.88;;;37.30;29.90;;;;;;4957933;28;20119;-73
2022/07/20 10:10:45;;;;;;;6.90;2.33;;;37.50;29.80;;;;;;4972098;28;20045;-73
2022/07/20 10:13:10;;;;;;;7.03;2.70;;;37.70;29.70;;;;;;4972872;28;20092;-72
2022/07/20 10:15:42;;;;;;;5.75;2.50;;;37.90;29.60;;;;;;4942753;28;20030;-72
2022/07/20 10:18:09;;;;;;;4.65;2.42;;;38.10;29.40;;;;;;4964974;28;20122;-73
2022/07/20 10:20:35;;;;;;;9.18;2.90;;;38.30;29.20;;;;;;4948937;28;20033;-71
2022/07/20 10:23:21;;;;;;;4.40;2.38;;;38.50;29.10;;;;;;4952171;28;20436;-72
2022/07/20 10:25:47;;;;;;;4.30;2.80;;;38.70;28.70;;;;;;4967436;28;20053;-73
2022/07/20 10:28:36;;;;;;;4.55;2.83;;;38.90;28.90;;;;;;4988887;28;20089;-73
2022/07/20 10:31:04;;;;;;;9.40;3.07;;;39.10;28.20;;;;;;4965343;28;20242;-72
2022/07/20 10:33:31;;;;;;;4.13;2.53;;;39.20;28.50;;;;;;4967968;28;20081;-73
2022/07/20 10:38:41;;;;;;;3.90;2.58;;;39.50;28.30;;;;;;4956302;28;20093;-73
2022/07/20 10:44:20;;;;;;;4.72;2.78;;;39.80;28.10;;;;;;4969885;28;20062;-73
2022/07/20 10:46:47;;;;;;;4.00;2.60;;;40.00;27.70;;;;;;4983476;28;20526;-72
2022/07/20 10:49:12;;;;;;;6.30;3.00;;;40.10;27.80;;;;;;4976204;28;20070;-73
2022/07/20 10:51:38;;;;;;;5.60;2.88;;;40.20;27.50;;;;;;4988334;28;20060;-72
2022/07/20 10:54:31;;;;;;;5.82;3.20;;;40.40;27.50;;;;;;4972491;28;20038;-73
2022/07/20 10:57:00;;;;;;;3.40;2.38;;;40.60;26.80;;;;;;4964438;28;20861;-72
2022/07/20 10:59:26;;;;;;;3.60;2.58;;;40.70;27.00;;;;;;4923511;28;20522;-72
2022/07/20 11:01:51;;;;;;;6.65;2.40;;;40.80;26.90;;;;;;4988099;28;20116;-72
2022/07/20 11:04:17;;;;;;;6.53;2.92;;;40.90;26.70;;;;;;4965791;28;20042;-72
2022/07/20 11:06:42;;;;;;;4.70;2.90;;;40.80;26.40;;;;;;4974864;28;20113;-73
2022/07/20 11:09:08;;;;;;;5.38;2.60;;;40.90;26.20;;;;;;4970031;28;20050;-74
2022/07/20 11:11:35;;;;;;;3.28;2.47;;;41.00;26.10;;;;;;4960616;28;20058;-73
2022/07/20 11:14:02;;;;;;;2.85;2.38;;;41.00;26.10;;;;;;4977964;28;20050;-72
2022/07/20 11:16:28;;;;;;;5.30;2.83;;;41.10;25.90;;;;;;4975118;28;20038;-73
2022/07/20 11:18:54;;;;;;;3.50;2.65;;;41.30;25.90;;;;;;4985275;28;20137;-73
2022/07/20 11:21:30;;;;;;;4.13;2.55;;;41.30;25.60;;;;;;4979996;28;20045;-74
2022/07/20 11:23:56;;;;;;;3.55;2.70;;;41.50;25.30;;;;;;4976384;28;20049;-73
2022/07/20 11:26:21;;;;;;;4.68;2.50;;;41.50;25.40;;;;;;4974361;28;20026;-73
2022/07/20 11:28:50;;;;;;;5.80;2.85;;;41.70;25.30;;;;;;5008969;28;20065;-74
2022/07/20 11:31:17;;;;;;;3.30;2.90;;;41.90;25.30;;;;;;4970102;28;20038;-73
2022/07/20 11:33:44;;;;;;;5.00;2.67;;;42.00;25.30;;;;;;4981646;28;20030;-73
2022/07/20 11:36:12;;;;;;;4.80;2.42;;;42.10;25.10;;;;;;4946227;28;20077;-73
2022/07/20 11:38:38;;;;;;;3.67;2.63;;;42.20;25.00;;;;;;4969666;28;20034;-72
2022/07/20 11:41:05;;;;;;;4.03;2.47;;;42.30;24.80;;;;;;4977309;28;20039;-73
2022/07/20 11:43:30;;;;;;;2.75;2.47;;;42.40;24.80;;;;;;4980194;28;20045;-74
2022/07/20 11:46:15;;;;;;;3.40;2.50;;;42.50;24.60;;;;;;4985623;28;20089;-72
2022/07/20 11:48:41;;;;;;;8.70;2.83;;;42.60;24.20;;;;;;4955943;28;20758;-72
2022/07/20 11:51:07;;;;;;;7.22;2.60;;;42.70;24.30;;;;;;4978009;28;20056;-73
2022/07/20 11:53:35;;;;;;;5.45;2.72;;;42.90;24.10;;;;;;4979376;28;20045;-73
2022/07/20 11:56:02;;;;;;;4.28;2.50;;;43.00;23.90;;;;;;4976099;28;20054;-72
2022/07/20 11:58:32;;;;;;;4.85;2.72;;;43.10;23.80;;;;;;4976738;28;20034;-73
2022/07/20 12:00:59;;;;;;;5.75;2.65;;;43.20;23.40;;;;;;4973584;28;20070;-73
2022/07/20 12:03:28;;;;;;;22.08;3.33;;;43.20;23.30;;;;;;4977883;28;20399;-73
2022/07/20 12:05:54;;;;;;;10.82;3.03;;;43.30;23.90;;;;;;4963201;28;20087;-72
2022/07/20 12:08:19;;;;;;;7.80;2.50;;;43.40;23.30;;;;;;4975954;28;20121;-72
2022/07/20 12:10:45;;;;;;;3.70;2.40;;;43.50;23.20;;;;;;4969612;28;20039;-73
2022/07/20 12:13:13;;;;;;;2.78;2.30;;;43.60;23.00;;;;;;4977026;28;20034;-73
2022/07/20 12:15:39;;;;;;;3.67;2.22;;;43.70;22.80;;;;;;4947310;28;20039;-73
2022/07/20 12:18:05;;;;;;;2.80;2.50;;;43.90;22.50;;;;;;4963296;28;20076;-72
2022/07/20 12:20:30;;;;;;;2.67;2.20;;;43.90;22.90;;;;;;4942261;28;20101;-73
2022/07/20 12:22:57;;;;;;;4.85;2.50;;;44.00;22.30;;;;;;4974888;28;20108;-73
2022/07/20 12:25:37;;;;;;;3.60;2.05;;;44.10;22.20;;;;;;4975608;28;20034;-72
2022/07/20 12:28:03;;;;;;;5.55;2.00;;;44.20;21.60;;;;;;4973783;28;20041;-73
2022/07/20 12:30:38;;;;;;;6.07;2.47;;;44.20;21.80;;;;;;4962650;28;20045;-72
2022/07/20 12:33:14;;;;;;;6.82;2.30;;;44.30;21.90;;;;;;4961113;28;20062;-73
2022/07/20 12:35:41;;;;;;;4.93;2.22;;;44.40;21.60;;;;;;4977881;28;20121;-74
2022/07/20 12:38:07;;;;;;;4.90;2.38;;;44.60;21.80;;;;;;4960387;28;20030;-72
2022/07/20 12:40:45;;;;;;;3.97;2.30;;;44.60;21.50;;;;;;4972638;28;20096;-72
2022/07/20 12:43:33;;;;;;;3.53;2.58;;;44.80;21.60;;;;;;4971954;28;20132;-72
2022/07/20 12:46:07;;;;;;;3.30;2.08;;;44.80;20.80;;;;;;4961858;28;20050;-73
2022/07/20 12:48:33;;;;;;;5.45;2.40;;;44.80;21.20;;;;;;4972941;28;20045;-74
2022/07/20 12:50:59;;;;;;;4.05;2.20;;;44.80;21.20;;;;;;4976804;28;20041;-73